Time,TemperatureF,DewpointF,PressureIn,WindDirection,WindDirectionDegrees,WindSpeedMPH,WindSpeedGustMPH,Humidity,HourlyPrecipIn,Conditions,Clouds,dailyrainin,SoftwareType,DateUTC
2013-08-10 00:00:00,57.0,-99.9,-100.00,West,268,3.0,4.0,-999,-99.99,,,-99.99,,2013-08-10 06:00:00,
2013-08-10 00:22:00,57.0,-99.9,-100.00,West,268,3.0,4.0,-999,-99.99,,,-99.99,,2013-08-10 06:22:00,
2013-08-10 00:32:00,57.0,-99.9,-100.00,West,268,3.0,4.0,-999,-99.99,,,-99.99,,2013-08-10 06:32:00,
2013-08-10 00:44:00,57.0,-99.9,-100.00,West,268,3.0,4.0,-999,-99.99,,,-99.99,,2013-08-10 06:44:00,
2013-08-10 00:53:00,57.0,-99.9,-100.00,West,268,3.0,4.0,-999,-99.99,,,-99.99,,2013-08-10 06:53:00,
2013-08-10 01:00:00,58.0,-99.9,-100.00,WSW,245,5.0,6.0,-999,-99.99,,,-99.99,,2013-08-10 07:00:00,
2013-08-10 01:22:00,58.0,-99.9,-100.00,WSW,245,5.0,6.0,-999,-99.99,,,-99.99,,2013-08-10 07:22:00,
2013-08-10 01:33:00,58.0,-99.9,-100.00,WSW,245,5.0,6.0,-999,-99.99,,,-99.99,,2013-08-10 07:33:00,
2013-08-10 01:43:00,58.0,-99.9,-100.00,WSW,245,5.0,6.0,-999,-99.99,,,-99.99,,2013-08-10 07:43:00,
2013-08-10 01:52:00,58.0,-99.9,-100.00,WSW,245,5.0,6.0,-999,-99.99,,,-99.99,,2013-08-10 07:52:00,
2013-08-10 02:00:00,55.0,-99.9,-100.00,West,265,7.0,8.0,-999,-99.99,,,-99.99,,2013-08-10 08:00:00,
2013-08-10 02:22:00,55.0,-99.9,-100.00,West,265,7.0,8.0,-999,-99.99,,,-99.99,,2013-08-10 08:22:00,
2013-08-10 02:32:00,55.0,-99.9,-100.00,West,265,7.0,8.0,-999,-99.99,,,-99.99,,2013-08-10 08:32:00,
2013-08-10 02:43:00,55.0,-99.9,-100.00,West,265,7.0,8.0,-999,-99.99,,,-99.99,,2013-08-10 08:43:00,
2013-08-10 02:53:00,55.0,-99.9,-100.00,West,265,7.0,8.0,-999,-99.99,,,-99.99,,2013-08-10 08:53:00,
2013-08-10 03:00:00,56.0,-99.9,-100.00,SW,216,7.0,8.0,-999,-99.99,,,-99.99,,2013-08-10 09:00:00,
2013-08-10 03:22:00,56.0,-99.9,-100.00,SW,216,7.0,8.0,-999,-99.99,,,-99.99,,2013-08-10 09:22:00,
2013-08-10 03:32:00,56.0,-99.9,-100.00,SW,216,7.0,8.0,-999,-99.99,,,-99.99,,2013-08-10 09:32:00,
2013-08-10 03:43:00,56.0,-99.9,-100.00,SW,216,7.0,8.0,-999,-99.99,,,-99.99,,2013-08-10 09:43:00,
2013-08-10 03:52:00,56.0,-99.9,-100.00,SW,216,7.0,8.0,-999,-99.99,,,-99.99,,2013-08-10 09:52:00,
2013-08-10 04:00:00,55.0,-99.9,-100.00,SSW,213,6.0,7.0,-999,-99.99,,,-99.99,,2013-08-10 10:00:00,
2013-08-10 04:33:00,55.0,-99.9,-100.00,SSW,213,6.0,7.0,-999,-99.99,,,-99.99,,2013-08-10 10:33:00,
2013-08-10 04:44:00,55.0,-99.9,-100.00,SSW,213,6.0,7.0,-999,-99.99,,,-99.99,,2013-08-10 10:44:00,
2013-08-10 04:53:00,55.0,-99.9,-100.00,SSW,213,6.0,7.0,-999,-99.99,,,-99.99,,2013-08-10 10:53:00,
2013-08-10 05:00:00,57.0,-99.9,-100.00,SSW,209,7.0,9.0,-999,-99.99,,,-99.99,,2013-08-10 11:00:00,
2013-08-10 05:22:00,57.0,-99.9,-100.00,SSW,209,7.0,9.0,-999,-99.99,,,-99.99,,2013-08-10 11:22:00,
2013-08-10 05:33:00,57.0,-99.9,-100.00,SSW,209,7.0,9.0,-999,-99.99,,,-99.99,,2013-08-10 11:33:00,
2013-08-10 05:43:00,57.0,-99.9,-100.00,SSW,209,7.0,9.0,-999,-99.99,,,-99.99,,2013-08-10 11:43:00,
2013-08-10 05:53:00,57.0,-99.9,-100.00,SSW,209,7.0,9.0,-999,-99.99,,,-99.99,,2013-08-10 11:53:00,
2013-08-10 06:00:00,56.0,-99.9,-100.00,SSW,211,7.0,9.0,-999,-99.99,,,-99.99,,2013-08-10 12:00:00,
2013-08-10 06:22:00,56.0,-99.9,-100.00,SSW,211,7.0,9.0,-999,-99.99,,,-99.99,,2013-08-10 12:22:00,
2013-08-10 06:32:00,56.0,-99.9,-100.00,SSW,211,7.0,9.0,-999,-99.99,,,-99.99,,2013-08-10 12:32:00,
2013-08-10 06:42:00,56.0,-99.9,-100.00,SSW,211,7.0,9.0,-999,-99.99,,,-99.99,,2013-08-10 12:42:00,
2013-08-10 06:53:00,56.0,-99.9,-100.00,SSW,211,7.0,9.0,-999,-99.99,,,-99.99,,2013-08-10 12:53:00,
2013-08-10 07:00:00,59.0,-99.9,-100.00,SW,234,8.0,10.0,-999,-99.99,,,-99.99,,2013-08-10 13:00:00,
2013-08-10 07:22:00,59.0,-99.9,-100.00,SW,234,8.0,10.0,-999,-99.99,,,-99.99,,2013-08-10 13:22:00,
2013-08-10 07:32:00,59.0,-99.9,-100.00,SW,234,8.0,10.0,-999,-99.99,,,-99.99,,2013-08-10 13:32:00,
2013-08-10 07:43:00,59.0,-99.9,-100.00,SW,234,8.0,10.0,-999,-99.99,,,-99.99,,2013-08-10 13:43:00,
2013-08-10 07:52:00,59.0,-99.9,-100.00,SW,234,8.0,10.0,-999,-99.99,,,-99.99,,2013-08-10 13:52:00,
2013-08-10 08:00:00,62.0,-99.9,-100.00,ESE,107,3.0,5.0,-999,-99.99,,,-99.99,,2013-08-10 14:00:00,
2013-08-10 08:22:00,62.0,-99.9,-100.00,ESE,107,3.0,5.0,-999,-99.99,,,-99.99,,2013-08-10 14:22:00,
2013-08-10 08:33:00,62.0,-99.9,-100.00,ESE,107,3.0,5.0,-999,-99.99,,,-99.99,,2013-08-10 14:33:00,
2013-08-10 08:43:00,62.0,-99.9,-100.00,ESE,107,3.0,5.0,-999,-99.99,,,-99.99,,2013-08-10 14:43:00,
2013-08-10 08:53:00,62.0,-99.9,-100.00,ESE,107,3.0,5.0,-999,-99.99,,,-99.99,,2013-08-10 14:53:00,
2013-08-10 09:00:00,69.0,-99.9,-100.00,NNE,25,5.0,7.0,-999,-99.99,,,-99.99,,2013-08-10 15:00:00,
2013-08-10 09:43:00,69.0,-99.9,-100.00,NNE,25,5.0,7.0,-999,-99.99,,,-99.99,,2013-08-10 15:43:00,
2013-08-10 09:52:00,69.0,-99.9,-100.00,NNE,25,5.0,7.0,-999,-99.99,,,-99.99,,2013-08-10 15:52:00,
2013-08-10 10:00:00,74.0,-99.9,-100.00,ENE,76,2.0,5.0,-999,-99.99,,,-99.99,,2013-08-10 16:00:00,
2013-08-10 10:32:00,74.0,-99.9,-100.00,ENE,76,2.0,5.0,-999,-99.99,,,-99.99,,2013-08-10 16:32:00,
2013-08-10 10:43:00,74.0,-99.9,-100.00,ENE,76,2.0,5.0,-999,-99.99,,,-99.99,,2013-08-10 16:43:00,
2013-08-10 10:53:00,74.0,-99.9,-100.00,ENE,76,2.0,5.0,-999,-99.99,,,-99.99,,2013-08-10 16:53:00,
2013-08-10 11:00:00,76.0,-99.9,-100.00,North,4,7.0,9.0,-999,-99.99,,,-99.99,,2013-08-10 17:00:00,
2013-08-10 11:33:00,76.0,-99.9,-100.00,North,4,7.0,9.0,-999,-99.99,,,-99.99,,2013-08-10 17:33:00,
2013-08-10 11:43:00,76.0,-99.9,-100.00,North,4,7.0,9.0,-999,-99.99,,,-99.99,,2013-08-10 17:43:00,
2013-08-10 11:52:00,76.0,-99.9,-100.00,North,4,7.0,9.0,-999,-99.99,,,-99.99,,2013-08-10 17:52:00,
2013-08-10 12:00:00,79.0,-99.9,-100.00,NNW,347,8.0,10.0,-999,-99.99,,,-99.99,,2013-08-10 18:00:00,
2013-08-10 12:23:00,79.0,-99.9,-100.00,NNW,347,8.0,10.0,-999,-99.99,,,-99.99,,2013-08-10 18:23:00,
2013-08-10 12:32:00,79.0,-99.9,-100.00,NNW,347,8.0,10.0,-999,-99.99,,,-99.99,,2013-08-10 18:32:00,
2013-08-10 12:44:00,79.0,-99.9,-100.00,NNW,347,8.0,10.0,-999,-99.99,,,-99.99,,2013-08-10 18:44:00,
2013-08-10 12:52:00,79.0,-99.9,-100.00,NNW,347,8.0,10.0,-999,-99.99,,,-99.99,,2013-08-10 18:52:00,
2013-08-10 13:00:00,78.0,-99.9,-100.00,NNW,329,9.0,11.0,-999,-99.99,,,-99.99,,2013-08-10 19:00:00,
2013-08-10 13:22:00,78.0,-99.9,-100.00,NNW,329,9.0,11.0,-999,-99.99,,,-99.99,,2013-08-10 19:22:00,
2013-08-10 13:33:00,78.0,-99.9,-100.00,NNW,329,9.0,11.0,-999,-99.99,,,-99.99,,2013-08-10 19:33:00,
2013-08-10 13:44:00,78.0,-99.9,-100.00,NNW,329,9.0,11.0,-999,-99.99,,,-99.99,,2013-08-10 19:44:00,
2013-08-10 13:53:00,78.0,-99.9,-100.00,NNW,329,9.0,11.0,-999,-99.99,,,-99.99,,2013-08-10 19:53:00,
2013-08-10 14:00:00,77.0,-99.9,-100.00,West,274,7.0,9.0,-999,-99.99,,,-99.99,,2013-08-10 20:00:00,
2013-08-10 14:22:00,77.0,-99.9,-100.00,West,274,7.0,9.0,-999,-99.99,,,-99.99,,2013-08-10 20:22:00,
2013-08-10 14:33:00,77.0,-99.9,-100.00,West,274,7.0,9.0,-999,-99.99,,,-99.99,,2013-08-10 20:33:00,
2013-08-10 14:43:00,77.0,-99.9,-100.00,West,274,7.0,9.0,-999,-99.99,,,-99.99,,2013-08-10 20:43:00,
2013-08-10 14:53:00,77.0,-99.9,-100.00,West,274,7.0,9.0,-999,-99.99,,,-99.99,,2013-08-10 20:53:00,
2013-08-10 15:00:00,77.0,-99.9,-100.00,NNE,19,0.0,3.0,-999,-99.99,,,-99.99,,2013-08-10 21:00:00,
2013-08-10 15:22:00,77.0,-99.9,-100.00,NNE,19,0.0,3.0,-999,-99.99,,,-99.99,,2013-08-10 21:22:00,
2013-08-10 15:32:00,77.0,-99.9,-100.00,NNE,19,0.0,3.0,-999,-99.99,,,-99.99,,2013-08-10 21:32:00,
2013-08-10 15:43:00,77.0,-99.9,-100.00,NNE,19,0.0,3.0,-999,-99.99,,,-99.99,,2013-08-10 21:43:00,
2013-08-10 15:52:00,77.0,-99.9,-100.00,NNE,19,0.0,3.0,-999,-99.99,,,-99.99,,2013-08-10 21:52:00,
2013-08-10 16:32:00,70.0,-99.9,-100.00,NNW,338,12.0,17.0,-999,-99.99,,,-99.99,,2013-08-10 22:32:00,
2013-08-10 16:43:00,70.0,-99.9,-100.00,NNW,338,12.0,17.0,-999,-99.99,,,-99.99,,2013-08-10 22:43:00,
2013-08-10 16:53:00,70.0,-99.9,-100.00,NNW,338,12.0,17.0,-999,-99.99,,,-99.99,,2013-08-10 22:53:00,
2013-08-10 17:00:00,73.0,-99.9,-100.00,WSW,257,7.0,9.0,-999,-99.99,,,-99.99,,2013-08-10 23:00:00,
2013-08-10 17:22:00,73.0,-99.9,-100.00,WSW,257,7.0,9.0,-999,-99.99,,,-99.99,,2013-08-10 23:22:00,
2013-08-10 17:33:00,73.0,-99.9,-100.00,WSW,257,7.0,9.0,-999,-99.99,,,-99.99,,2013-08-10 23:33:00,
2013-08-10 17:43:00,73.0,-99.9,-100.00,WSW,257,7.0,9.0,-999,-99.99,,,-99.99,,2013-08-10 23:43:00,
2013-08-10 17:53:00,73.0,-99.9,-100.00,WSW,257,7.0,9.0,-999,-99.99,,,-99.99,,2013-08-10 23:53:00,
2013-08-10 19:00:00,74.0,-99.9,-100.00,SW,231,6.0,7.0,-999,-99.99,,,-99.99,,2013-08-11 01:00:00,
2013-08-10 19:22:00,74.0,-99.9,-100.00,SW,231,6.0,7.0,-999,-99.99,,,-99.99,,2013-08-11 01:22:00,
2013-08-10 19:32:00,74.0,-99.9,-100.00,SW,231,6.0,7.0,-999,-99.99,,,-99.99,,2013-08-11 01:32:00,
2013-08-10 19:43:00,74.0,-99.9,-100.00,SW,231,6.0,7.0,-999,-99.99,,,-99.99,,2013-08-11 01:43:00,
2013-08-10 19:54:00,74.0,-99.9,-100.00,SW,231,6.0,7.0,-999,-99.99,,,-99.99,,2013-08-11 01:54:00,
2013-08-10 20:00:00,74.0,-99.9,-100.00,WSW,246,5.0,5.0,-999,-99.99,,,-99.99,,2013-08-11 02:00:00,
2013-08-10 20:33:00,74.0,-99.9,-100.00,WSW,246,5.0,5.0,-999,-99.99,,,-99.99,,2013-08-11 02:33:00,
2013-08-10 20:43:00,74.0,-99.9,-100.00,WSW,246,5.0,5.0,-999,-99.99,,,-99.99,,2013-08-11 02:43:00,
2013-08-10 20:59:00,74.0,-99.9,-100.00,WSW,246,5.0,5.0,-999,-99.99,,,-99.99,,2013-08-11 02:59:00,
2013-08-10 21:00:00,66.0,-99.9,-100.00,WSW,237,8.0,9.0,-999,-99.99,,,-99.99,,2013-08-11 03:00:00,
2013-08-10 21:30:00,66.0,-99.9,-100.00,WSW,237,8.0,9.0,-999,-99.99,,,-99.99,,2013-08-11 03:30:00,
2013-08-10 21:37:00,66.0,-99.9,-100.00,WSW,237,8.0,9.0,-999,-99.99,,,-99.99,,2013-08-11 03:37:00,
2013-08-10 21:47:00,66.0,-99.9,-100.00,WSW,237,8.0,9.0,-999,-99.99,,,-99.99,,2013-08-11 03:47:00,
2013-08-10 21:59:00,66.0,-99.9,-100.00,WSW,237,8.0,9.0,-999,-99.99,,,-99.99,,2013-08-11 03:59:00,
2013-08-10 22:00:00,64.0,-99.9,-100.00,SW,223,6.0,9.0,-999,-99.99,,,-99.99,,2013-08-11 04:00:00,
2013-08-10 22:22:00,64.0,-99.9,-100.00,SW,223,6.0,9.0,-999,-99.99,,,-99.99,,2013-08-11 04:22:00,
2013-08-10 22:32:00,64.0,-99.9,-100.00,SW,223,6.0,9.0,-999,-99.99,,,-99.99,,2013-08-11 04:32:00,
2013-08-10 22:43:00,64.0,-99.9,-100.00,SW,223,6.0,9.0,-999,-99.99,,,-99.99,,2013-08-11 04:43:00,
2013-08-10 22:53:00,64.0,-99.9,-100.00,SW,223,6.0,9.0,-999,-99.99,,,-99.99,,2013-08-11 04:53:00,
2013-08-10 23:00:00,63.0,-99.9,-100.00,SW,222,6.0,8.0,-999,-99.99,,,-99.99,,2013-08-11 05:00:00,
2013-08-10 23:26:00,63.0,-99.9,-100.00,SW,222,6.0,8.0,-999,-99.99,,,-99.99,,2013-08-11 05:26:00,
2013-08-10 23:52:00,63.0,-99.9,-100.00,SW,222,6.0,8.0,-999,-99.99,,,-99.99,,2013-08-11 05:52:00,
2013-08-10 23:59:00,63.0,-99.9,-100.00,SW,222,6.0,8.0,-999,-99.99,,,-99.99,,2013-08-11 05:59:00,